createdAt,value
2022-08-16T00:10:20.655Z,92.30
2022-08-16T00:20:25.322Z,92.69
2022-08-16T00:30:45.851Z,92.56
2022-08-16T00:41:05.981Z,93.52
2022-08-16T00:51:41.012Z,93.97
2022-08-16T01:02:30.365Z,94.36
2022-08-16T01:13:06.374Z,95.65
2022-08-16T01:24:51.631Z,95.95
2022-08-16T01:34:56.948Z,96.50
2022-08-16T01:45:40.419Z,96.81
2022-08-16T01:56:24.264Z,96.77
2022-08-16T02:07:17.253Z,96.94
2022-08-16T02:17:57.748Z,97.71
2022-08-16T02:28:23.691Z,96.35
2022-08-16T02:38:55.582Z,96.71
2022-08-16T02:49:07.142Z,98.10
2022-08-16T02:59:19.184Z,97.55
2022-08-16T03:09:32.654Z,98.17
2022-08-16T03:21:23.957Z,98.17
2022-08-16T03:31:53.558Z,98.59
2022-08-16T03:54:17.930Z,100.00
2022-08-16T04:04:54.580Z,100.00
2022-08-16T04:15:24.819Z,100.00
2022-08-16T04:26:22.591Z,100.00
2022-08-16T04:37:07.526Z,100.00
2022-08-16T04:47:36.403Z,100.00
2022-08-16T04:58:43.768Z,100.00
2022-08-16T05:08:47.189Z,100.00
2022-08-16T05:19:16.374Z,99.44
2022-08-16T05:29:57.837Z,98.46
2022-08-16T05:40:20.125Z,97.55
2022-08-16T05:51:07.929Z,96.36
2022-08-16T06:01:23.100Z,95.32
2022-08-16T06:11:50.434Z,94.19
2022-08-16T06:23:02.835Z,92.51
2022-08-16T06:33:41.726Z,91.54
2022-08-16T06:44:08.016Z,90.81
2022-08-16T06:54:35.980Z,90.48
2022-08-16T07:04:54.382Z,88.89
2022-08-16T07:15:50.550Z,88.01
2022-08-16T07:25:29.220Z,86.31
2022-08-16T07:35:51.465Z,86.11
2022-08-16T07:46:39.647Z,84.93
2022-08-16T07:56:54.863Z,82.53
2022-08-16T08:07:09.610Z,80.64
2022-08-16T08:17:43.010Z,79.22
2022-08-16T08:39:55.317Z,75.48
2022-08-16T09:25:11.180Z,65.29
2022-08-16T09:48:11.150Z,62.10
2022-08-16T09:59:20.976Z,61.65
2022-08-16T10:10:30.760Z,62.55
2022-08-16T10:21:09.431Z,61.76
2022-08-16T10:32:31.950Z,62.14
2022-08-16T10:54:32.111Z,63.65
2022-08-16T11:29:15.268Z,64.50
2022-08-16T11:39:38.279Z,64.95
2022-08-16T11:50:52.959Z,64.78
2022-08-16T12:25:21.651Z,66.48
2022-08-16T12:47:37.301Z,67.44
2022-08-16T13:22:05.397Z,66.42
2022-08-16T13:44:00.606Z,69.50
2022-08-16T13:55:18.113Z,69.95
2022-08-16T14:06:11.432Z,68.57
2022-08-16T14:28:10.451Z,62.11
2022-08-16T14:39:52.630Z,58.34
2022-08-16T14:50:53.695Z,57.91
2022-08-16T16:12:51.261Z,58.60
2022-08-16T16:23:27.221Z,60.71
2022-08-16T16:35:16.234Z,62.68
2022-08-16T16:57:16.919Z,65.64
2022-08-16T17:08:04.777Z,66.87
2022-08-16T17:40:25.477Z,68.70
2022-08-16T17:51:39.590Z,71.20
2022-08-16T18:14:51.324Z,73.93
2022-08-16T18:57:45.500Z,77.98
2022-08-16T19:31:23.862Z,79.64
2022-08-16T19:53:42.604Z,80.96
2022-08-16T20:03:46.391Z,82.55
2022-08-16T20:14:25.517Z,82.72
2022-08-16T20:24:34.554Z,82.39
2022-08-16T20:35:03.523Z,83.04
2022-08-16T20:45:08.371Z,84.31
2022-08-16T20:55:22.414Z,84.75
2022-08-16T21:05:31.918Z,85.36
2022-08-16T21:16:30.210Z,86.32
2022-08-16T21:27:19.220Z,85.98
2022-08-16T21:37:36.323Z,86.76
2022-08-16T21:48:11.015Z,87.01
2022-08-16T21:58:25.197Z,87.71
2022-08-16T22:08:50.982Z,88.31
2022-08-16T22:19:11.805Z,88.36
2022-08-16T22:29:48.105Z,88.51
2022-08-16T22:40:40.579Z,89.56
2022-08-16T22:50:56.977Z,90.60
2022-08-16T23:01:22.140Z,91.37
2022-08-16T23:12:08.106Z,91.74
2022-08-16T23:23:17.628Z,92.37
2022-08-16T23:33:19.393Z,92.86
2022-08-16T23:43:34.684Z,94.20
2022-08-16T23:54:03.771Z,94.12
